createdAt,value
2023-05-24T00:00:35.769Z,9.00
2023-05-24T00:03:04.897Z,8.60
2023-05-24T00:05:33.173Z,9.50
2023-05-24T00:08:00.919Z,8.90
2023-05-24T00:10:28.480Z,8.30
2023-05-24T00:12:56.044Z,8.00
2023-05-24T00:15:23.914Z,8.60
2023-05-24T00:17:51.824Z,8.80
2023-05-24T00:20:20.860Z,8.70
2023-05-24T00:22:48.693Z,8.40
2023-05-24T00:25:16.290Z,8.30
2023-05-24T00:27:43.829Z,8.60
2023-05-24T00:30:11.821Z,8.90
2023-05-24T00:32:39.497Z,7.90
2023-05-24T00:35:07.383Z,8.20
2023-05-24T00:37:35.001Z,7.70
2023-05-24T00:40:02.533Z,7.90
2023-05-24T00:42:30.130Z,7.80
2023-05-24T00:44:57.657Z,8.30
2023-05-24T00:47:25.635Z,8.60
2023-05-24T00:49:53.231Z,8.60
2023-05-24T00:52:21.122Z,8.50
2023-05-24T00:54:49.807Z,9.90
2023-05-24T00:57:19.068Z,8.90
2023-05-24T00:59:46.715Z,10.00
2023-05-24T01:02:14.506Z,10.40
2023-05-24T01:04:42.254Z,9.60
2023-05-24T01:07:21.400Z,9.00
2023-05-24T01:10:01.040Z,9.80
2023-05-24T01:12:53.955Z,9.00
2023-05-24T01:15:30.906Z,9.30
2023-05-24T01:18:06.225Z,9.90
2023-05-24T01:20:34.671Z,9.40
2023-05-24T01:23:21.280Z,9.50
2023-05-24T01:25:50.059Z,9.40
2023-05-24T01:28:18.299Z,8.40
2023-05-24T01:30:46.054Z,7.60
2023-05-24T01:33:13.987Z,9.20
2023-05-24T01:35:42.834Z,8.20
2023-05-24T01:38:13.361Z,9.10
2023-05-24T01:40:42.110Z,8.90
2023-05-24T01:43:17.178Z,9.10
2023-05-24T01:45:53.372Z,8.30
2023-05-24T01:48:49.021Z,9.20
2023-05-24T01:51:18.705Z,10.00
2023-05-24T01:53:47.741Z,9.20
2023-05-24T01:56:17.289Z,9.10
2023-05-24T01:58:45.660Z,9.40
2023-05-24T02:01:14.482Z,9.90
2023-05-24T02:03:42.168Z,9.90
2023-05-24T02:06:10.942Z,9.70
2023-05-24T02:08:40.668Z,10.80
2023-05-24T02:11:08.212Z,9.50
2023-05-24T02:13:35.878Z,9.20
2023-05-24T02:16:05.273Z,9.30
2023-05-24T02:18:35.080Z,9.80
2023-05-24T02:21:03.344Z,8.80
2023-05-24T02:23:31.001Z,9.50
2023-05-24T02:26:00.387Z,8.90
2023-05-24T02:28:30.154Z,9.00
2023-05-24T02:30:58.103Z,8.10
2023-05-24T02:33:25.832Z,8.30
2023-05-24T02:35:53.360Z,9.00
2023-05-24T02:38:21.296Z,9.60
2023-05-24T02:40:48.896Z,8.60
2023-05-24T02:43:16.452Z,9.00
2023-05-24T02:45:44.210Z,10.90
2023-05-24T02:48:11.761Z,13.60
2023-05-24T02:50:39.430Z,14.10
2023-05-24T02:53:07.090Z,12.90
2023-05-24T02:55:34.643Z,11.70
2023-05-24T02:58:03.179Z,13.10
2023-05-24T03:00:31.511Z,13.20
2023-05-24T03:03:03.739Z,13.20
2023-05-24T03:05:32.691Z,11.80
2023-05-24T03:08:00.262Z,11.20
2023-05-24T03:10:28.019Z,11.40
2023-05-24T03:12:55.599Z,8.90
2023-05-24T03:15:23.623Z,8.30
2023-05-24T03:17:52.983Z,8.00
2023-05-24T03:20:21.357Z,8.10
2023-05-24T03:22:49.066Z,7.20
2023-05-24T03:25:17.008Z,5.70
2023-05-24T03:27:45.242Z,5.80
2023-05-24T03:30:13.675Z,6.50
2023-05-24T03:32:48.596Z,6.30
2023-05-24T03:35:16.302Z,7.30
2023-05-24T03:37:44.036Z,6.90
2023-05-24T03:40:12.043Z,7.30
2023-05-24T03:43:00.712Z,7.20
2023-05-24T03:45:54.767Z,7.80
2023-05-24T03:48:22.404Z,8.40
2023-05-24T03:50:51.727Z,9.00
2023-05-24T03:53:21.614Z,11.40
2023-05-24T03:55:50.697Z,10.60
2023-05-24T03:58:18.312Z,9.80
2023-05-24T04:00:46.026Z,8.40
2023-05-24T04:03:15.018Z,8.70
2023-05-24T04:05:42.678Z,8.30
2023-05-24T04:08:10.973Z,8.80
2023-05-24T04:10:39.097Z,9.70
2023-05-24T04:13:06.970Z,9.70
2023-05-24T04:15:38.137Z,10.10
2023-05-24T04:18:06.163Z,9.50
2023-05-24T04:20:35.278Z,9.20
2023-05-24T04:23:03.094Z,9.10
2023-05-24T04:25:31.024Z,7.80
2023-05-24T04:27:58.620Z,7.90
2023-05-24T04:30:26.247Z,8.40
2023-05-24T04:32:54.071Z,7.70
2023-05-24T04:35:21.799Z,7.40
2023-05-24T04:37:50.503Z,6.90
2023-05-24T04:40:21.046Z,7.30
2023-05-24T04:42:49.179Z,8.10
2023-05-24T04:45:17.043Z,8.20
2023-05-24T04:47:44.907Z,8.20
2023-05-24T04:50:12.541Z,8.00
2023-05-24T04:52:40.126Z,7.50
2023-05-24T04:55:08.034Z,6.70
2023-05-24T04:57:35.682Z,6.30
2023-05-24T05:00:04.873Z,6.60
2023-05-24T05:02:33.235Z,7.40
2023-05-24T05:05:01.156Z,6.90
2023-05-24T05:07:28.896Z,5.90
2023-05-24T05:09:57.103Z,6.30
2023-05-24T05:12:24.897Z,6.70
2023-05-24T05:14:52.815Z,6.30
2023-05-24T05:17:20.596Z,6.10
2023-05-24T05:19:48.354Z,5.10
2023-05-24T05:22:16.807Z,4.50
2023-05-24T05:24:44.399Z,4.60
2023-05-24T05:27:11.957Z,4.60
2023-05-24T05:29:39.571Z,4.50
2023-05-24T05:32:07.340Z,4.30
2023-05-24T05:34:35.035Z,5.00
2023-05-24T05:37:05.007Z,4.30
2023-05-24T05:39:32.585Z,6.10
2023-05-24T05:42:01.316Z,5.50
2023-05-24T05:44:29.009Z,4.40
2023-05-24T05:46:56.836Z,5.10
2023-05-24T05:49:24.698Z,4.10
2023-05-24T05:51:53.283Z,5.00
2023-05-24T05:54:20.875Z,4.80
2023-05-24T05:56:48.583Z,4.90
2023-05-24T05:59:16.228Z,4.70
2023-05-24T06:01:44.493Z,4.30
2023-05-24T06:04:13.227Z,4.40
2023-05-24T06:06:40.957Z,4.10
2023-05-24T06:09:08.783Z,4.00
2023-05-24T06:11:36.375Z,3.60
2023-05-24T06:14:03.994Z,3.40
2023-05-24T06:16:32.812Z,4.70
2023-05-24T06:19:05.958Z,4.00
2023-05-24T06:21:36.792Z,3.40
2023-05-24T06:24:04.886Z,3.60
2023-05-24T06:26:32.462Z,3.60
2023-05-24T06:29:00.084Z,3.30
2023-05-24T06:31:27.710Z,4.30
2023-05-24T06:34:03.936Z,4.00
2023-05-24T06:36:36.194Z,3.20
2023-05-24T06:39:05.210Z,3.20
2023-05-24T06:41:32.798Z,3.80
2023-05-24T06:44:00.477Z,4.00
2023-05-24T06:46:28.177Z,4.40
2023-05-24T06:48:55.915Z,4.00
2023-05-24T06:51:23.894Z,4.40
2023-05-24T06:53:51.612Z,3.90
2023-05-24T06:56:19.307Z,3.80
2023-05-24T06:58:47.068Z,4.70
2023-05-24T07:01:15.540Z,4.70
2023-05-24T07:03:43.175Z,4.20
2023-05-24T07:06:14.265Z,4.10
2023-05-24T07:08:42.238Z,4.90
2023-05-24T07:11:10.265Z,4.40
2023-05-24T07:13:37.914Z,4.50
2023-05-24T07:16:06.700Z,5.10
2023-05-24T07:18:34.275Z,4.60
2023-05-24T07:21:01.848Z,4.30
2023-05-24T07:23:29.571Z,4.70
2023-05-24T07:25:57.445Z,3.90
2023-05-24T07:28:25.079Z,4.50
2023-05-24T07:30:52.962Z,4.10
2023-05-24T07:33:20.783Z,4.20
2023-05-24T07:35:51.678Z,3.70
2023-05-24T07:38:19.313Z,4.80
2023-05-24T07:40:46.995Z,5.00
2023-05-24T07:43:14.599Z,3.70
2023-05-24T07:45:42.589Z,4.40
2023-05-24T07:48:10.434Z,4.10
2023-05-24T07:50:38.736Z,3.90
2023-05-24T07:53:06.502Z,4.40
2023-05-24T07:55:34.348Z,3.90
2023-05-24T07:58:02.067Z,4.10
2023-05-24T08:00:30.132Z,3.90
2023-05-24T08:02:57.875Z,4.20
2023-05-24T08:05:25.855Z,4.40
2023-05-24T08:07:53.754Z,4.30
2023-05-24T08:10:22.096Z,3.80
2023-05-24T08:12:51.721Z,3.60
2023-05-24T08:15:19.496Z,3.60
2023-05-24T08:17:47.151Z,4.10
2023-05-24T08:20:15.740Z,3.90
2023-05-24T08:22:43.629Z,4.00
2023-05-24T08:25:14.088Z,3.80
2023-05-24T08:27:42.014Z,4.70
2023-05-24T08:30:11.262Z,5.10
2023-05-24T08:32:39.607Z,4.90
2023-05-24T08:35:19.434Z,4.80
2023-05-24T08:37:49.548Z,4.90
2023-05-24T08:40:17.942Z,5.00
2023-05-24T08:42:46.711Z,4.30
2023-05-24T08:45:15.447Z,5.60
2023-05-24T08:47:43.265Z,6.20
2023-05-24T08:50:11.183Z,6.00
2023-05-24T08:52:39.835Z,6.90
2023-05-24T08:55:07.962Z,7.40
2023-05-24T08:57:39.617Z,8.00
2023-05-24T09:00:10.377Z,6.30
2023-05-24T09:02:42.656Z,5.30
2023-05-24T09:05:11.767Z,5.50
2023-05-24T09:07:39.400Z,5.40
2023-05-24T09:10:08.427Z,5.00
2023-05-24T09:12:39.058Z,4.80
2023-05-24T09:15:08.394Z,4.60
2023-05-24T09:17:37.028Z,5.00
2023-05-24T09:20:10.385Z,5.90
2023-05-24T09:22:41.080Z,5.20
2023-05-24T09:25:10.048Z,4.80
2023-05-24T09:27:38.813Z,4.40
2023-05-24T09:30:11.102Z,5.30
2023-05-24T09:32:39.077Z,6.70
2023-05-24T09:35:12.726Z,8.40
2023-05-24T09:37:40.580Z,7.10
2023-05-24T09:40:18.418Z,6.50
2023-05-24T09:42:46.591Z,6.70
2023-05-24T09:45:14.378Z,4.60
2023-05-24T09:47:42.750Z,4.10
2023-05-24T09:50:14.904Z,4.90
2023-05-24T09:52:42.849Z,3.80
2023-05-24T09:55:18.228Z,4.30
2023-05-24T09:57:53.619Z,4.30
2023-05-24T10:00:23.504Z,4.10
2023-05-24T10:03:02.701Z,4.10
2023-05-24T10:05:30.635Z,3.80
2023-05-24T10:07:58.850Z,3.80
2023-05-24T10:10:30.552Z,3.90
2023-05-24T10:12:58.850Z,4.20
2023-05-24T10:15:27.205Z,4.00
2023-05-24T10:17:55.508Z,4.30
2023-05-24T10:20:24.082Z,4.30
2023-05-24T10:23:04.210Z,4.10
2023-05-24T10:25:33.270Z,4.30
2023-05-24T10:28:03.537Z,3.60
2023-05-24T10:30:43.000Z,4.10
2023-05-24T10:33:12.815Z,4.50
2023-05-24T10:35:40.988Z,4.60
2023-05-24T10:38:08.698Z,4.20
2023-05-24T10:40:41.193Z,4.40
2023-05-24T10:43:08.844Z,3.80
2023-05-24T10:45:40.613Z,4.30
2023-05-24T10:48:15.700Z,5.00
2023-05-24T10:50:44.093Z,4.00
2023-05-24T10:53:19.216Z,4.40
2023-05-24T10:56:00.195Z,4.70
2023-05-24T10:58:43.870Z,4.40
2023-05-24T11:01:23.840Z,5.30
2023-05-24T11:03:51.829Z,4.60
2023-05-24T11:06:19.893Z,3.90
2023-05-24T11:08:47.492Z,4.70
2023-05-24T11:11:25.855Z,4.90
2023-05-24T11:13:58.879Z,5.00
2023-05-24T11:16:40.006Z,4.30
2023-05-24T11:19:35.386Z,4.60
2023-05-24T11:22:04.989Z,5.50
2023-05-24T11:24:32.769Z,4.30
2023-05-24T11:27:02.285Z,4.30
2023-05-24T11:29:30.479Z,4.30
2023-05-24T11:32:05.353Z,4.50
2023-05-24T11:34:33.916Z,5.10
2023-05-24T11:37:02.182Z,5.00
2023-05-24T11:39:34.717Z,5.50
2023-05-24T11:42:04.977Z,5.20
2023-05-24T11:44:32.831Z,5.20
2023-05-24T11:47:06.387Z,4.40
2023-05-24T11:49:33.997Z,5.00
2023-05-24T11:52:01.891Z,5.20
2023-05-24T11:54:30.278Z,5.10
2023-05-24T11:56:58.103Z,5.30
2023-05-24T11:59:32.260Z,4.70
2023-05-24T12:02:05.991Z,4.70
2023-05-24T12:04:34.811Z,4.90
2023-05-24T12:07:03.491Z,5.10
2023-05-24T12:09:31.266Z,4.50
2023-05-24T12:11:59.149Z,4.30
2023-05-24T12:14:33.754Z,4.30
2023-05-24T12:17:02.464Z,4.60
2023-05-24T12:19:34.103Z,4.30
2023-05-24T12:22:06.794Z,4.40
2023-05-24T12:24:35.442Z,4.30
2023-05-24T12:27:07.012Z,5.60
2023-05-24T12:29:40.112Z,4.50
2023-05-24T12:32:13.610Z,4.60
2023-05-24T12:34:43.010Z,5.20
2023-05-24T12:37:14.669Z,4.60
2023-05-24T12:39:44.169Z,5.00
2023-05-24T12:42:13.733Z,4.60
2023-05-24T12:44:42.122Z,4.30
2023-05-24T12:47:10.219Z,4.10
2023-05-24T12:49:37.953Z,4.30
2023-05-24T12:52:06.842Z,4.90
2023-05-24T12:54:34.673Z,4.80
2023-05-24T12:57:05.369Z,4.80
2023-05-24T12:59:33.665Z,5.00
2023-05-24T13:02:02.059Z,5.50
2023-05-24T13:04:31.983Z,5.50
2023-05-24T13:07:00.527Z,5.30
2023-05-24T13:09:28.332Z,5.20
2023-05-24T13:11:56.001Z,5.30
2023-05-24T13:14:23.637Z,5.70
2023-05-24T13:16:51.461Z,5.10
2023-05-24T13:19:19.325Z,4.70
2023-05-24T13:21:46.970Z,4.40
2023-05-24T13:24:16.207Z,4.80
2023-05-24T13:26:44.996Z,4.40
2023-05-24T13:31:44.052Z,5.30
2023-05-24T13:34:12.106Z,4.80
2023-05-24T13:36:39.964Z,6.40
2023-05-24T13:41:41.682Z,4.40
2023-05-24T13:44:10.335Z,4.90
2023-05-24T13:46:38.961Z,5.80
2023-05-24T13:49:07.289Z,4.80
2023-05-24T13:51:35.208Z,5.20
2023-05-24T13:54:03.497Z,5.30
2023-05-24T13:56:33.212Z,5.20
2023-05-24T13:59:02.545Z,4.60
2023-05-24T14:01:30.754Z,4.90
2023-05-24T14:03:58.623Z,5.10
2023-05-24T14:06:26.417Z,4.40
2023-05-24T14:08:54.252Z,5.10
2023-05-24T14:11:22.835Z,4.70
2023-05-24T14:18:51.871Z,4.60
2023-05-24T14:21:19.967Z,4.30
2023-05-24T14:23:47.960Z,4.10
2023-05-24T14:26:15.740Z,4.10
2023-05-24T14:28:43.548Z,4.00
2023-05-24T14:31:11.402Z,5.40
2023-05-24T14:33:39.295Z,3.50
2023-05-24T14:36:07.289Z,3.40
2023-05-24T14:38:34.831Z,3.80
2023-05-24T14:41:02.707Z,3.40
2023-05-24T14:43:30.562Z,3.60
2023-05-24T14:45:58.331Z,3.50
2023-05-24T14:48:26.207Z,3.10
2023-05-24T14:50:53.843Z,2.80
2023-05-24T14:53:21.454Z,3.10
2023-05-24T14:55:49.181Z,3.20
2023-05-24T14:58:16.785Z,4.10
2023-05-24T15:00:45.302Z,3.30
2023-05-24T15:03:14.928Z,4.20
2023-05-24T15:05:43.207Z,5.00
2023-05-24T15:08:14.114Z,3.70
2023-05-24T15:10:44.941Z,4.40
2023-05-24T15:13:13.481Z,3.50
2023-05-24T15:15:42.273Z,4.00
2023-05-24T15:18:10.499Z,4.20
2023-05-24T15:20:38.171Z,3.30
2023-05-24T15:23:06.527Z,3.60
2023-05-24T15:25:34.248Z,3.80
2023-05-24T15:28:02.237Z,4.00
2023-05-24T15:30:29.952Z,4.30
2023-05-24T15:32:57.687Z,6.20
2023-05-24T15:35:25.308Z,4.00
2023-05-24T15:37:52.946Z,3.80
2023-05-24T15:40:23.917Z,4.10
2023-05-24T15:42:53.084Z,4.50
2023-05-24T15:45:21.512Z,4.30
2023-05-24T15:47:49.366Z,3.40
2023-05-24T15:50:17.071Z,3.30
2023-05-24T15:52:44.755Z,4.00
2023-05-24T15:55:12.390Z,3.60
2023-05-24T15:57:39.973Z,3.00
2023-05-24T16:00:08.243Z,3.10
2023-05-24T16:02:42.046Z,3.40
2023-05-24T16:05:10.009Z,2.70
2023-05-24T16:07:38.343Z,2.70
2023-05-24T16:10:06.733Z,2.60
2023-05-24T16:12:34.286Z,3.10
2023-05-24T16:15:02.053Z,2.50
2023-05-24T16:17:30.262Z,2.90
2023-05-24T16:19:59.738Z,3.10
2023-05-24T16:22:27.498Z,2.50
2023-05-24T16:24:55.072Z,3.40
2023-05-24T16:27:22.648Z,2.70
2023-05-24T16:29:50.252Z,2.60
2023-05-24T16:32:17.935Z,3.10
2023-05-24T16:37:20.421Z,2.90
2023-05-24T16:39:47.991Z,2.60
2023-05-24T16:42:15.681Z,2.60
2023-05-24T16:44:43.307Z,2.70
2023-05-24T16:47:11.078Z,2.40
2023-05-24T16:49:38.802Z,2.60
2023-05-24T16:52:07.066Z,2.80
2023-05-24T16:54:34.750Z,2.90
2023-05-24T16:57:02.854Z,2.50
2023-05-24T16:59:30.635Z,2.70
2023-05-24T17:01:58.332Z,3.10
2023-05-24T17:04:26.225Z,2.50
2023-05-24T17:06:53.811Z,2.90
2023-05-24T17:09:21.646Z,3.00
2023-05-24T17:11:50.819Z,3.00
2023-05-24T17:14:18.993Z,3.20
2023-05-24T17:16:46.632Z,3.00
2023-05-24T17:19:14.452Z,2.80
2023-05-24T17:21:42.274Z,3.00
2023-05-24T17:24:10.980Z,3.20
2023-05-24T17:26:42.654Z,3.20
2023-05-24T17:29:10.706Z,3.10
2023-05-24T17:31:39.140Z,3.40
2023-05-24T17:34:07.647Z,3.00
2023-05-24T17:36:36.799Z,3.30
2023-05-24T17:39:05.363Z,3.00
2023-05-24T17:41:34.178Z,3.40
2023-05-24T17:44:02.887Z,4.20
2023-05-24T17:46:35.010Z,4.00
2023-05-24T17:49:04.746Z,3.90
2023-05-24T17:51:34.042Z,4.00
2023-05-24T17:54:01.848Z,4.90
2023-05-24T17:56:30.550Z,5.40
2023-05-24T17:58:58.686Z,4.90
2023-05-24T18:01:28.095Z,6.30
2023-05-24T18:03:55.824Z,6.30
2023-05-24T18:06:23.466Z,5.70
2023-05-24T18:08:51.173Z,5.60
2023-05-24T18:11:19.054Z,4.80
2023-05-24T18:13:47.325Z,4.80
2023-05-24T18:16:15.294Z,5.40
2023-05-24T18:18:44.269Z,5.10
2023-05-24T18:21:13.321Z,5.30
2023-05-24T18:23:42.647Z,5.40
2023-05-24T18:26:11.502Z,5.00
2023-05-24T18:28:39.461Z,4.80
2023-05-24T18:31:14.981Z,4.50
2023-05-24T18:33:43.386Z,4.90
2023-05-24T18:36:12.923Z,5.00
2023-05-24T18:38:41.187Z,5.00
2023-05-24T18:41:10.337Z,4.70
2023-05-24T18:43:40.707Z,4.90
2023-05-24T18:46:13.389Z,4.80
2023-05-24T18:48:44.276Z,4.60
2023-05-24T18:53:40.873Z,4.70
2023-05-24T18:56:08.557Z,4.60
2023-05-24T18:58:36.146Z,3.80
2023-05-24T19:01:04.145Z,4.50
2023-05-24T19:03:31.947Z,5.40
2023-05-24T19:05:59.665Z,5.40
2023-05-24T19:08:27.396Z,5.90
2023-05-24T19:10:55.015Z,5.10
2023-05-24T19:13:22.844Z,4.20
2023-05-24T19:15:50.634Z,3.80
2023-05-24T19:18:18.202Z,4.70
2023-05-24T19:20:45.804Z,4.40
2023-05-24T19:23:13.434Z,4.60
2023-05-24T19:25:42.357Z,5.20
2023-05-24T19:28:10.908Z,5.70
2023-05-24T19:30:38.460Z,5.60
2023-05-24T19:33:07.439Z,5.80
2023-05-24T19:35:35.202Z,5.80
2023-05-24T19:38:02.896Z,5.50
2023-05-24T19:40:30.591Z,5.20
2023-05-24T19:42:58.160Z,5.80
2023-05-24T19:45:25.938Z,6.30
2023-05-24T19:47:53.606Z,6.50
2023-05-24T19:50:21.360Z,5.30
2023-05-24T19:52:48.964Z,5.50
2023-05-24T19:55:16.765Z,6.00
2023-05-24T19:57:44.353Z,5.40
2023-05-24T20:00:14.050Z,5.60
2023-05-24T20:02:41.747Z,6.10
2023-05-24T20:05:11.689Z,6.10
2023-05-24T20:07:40.690Z,6.20
2023-05-24T20:10:09.857Z,6.50
2023-05-24T20:12:37.476Z,6.40
2023-05-24T20:15:08.243Z,6.70
2023-05-24T20:20:05.460Z,6.50
2023-05-24T20:22:33.132Z,6.30
2023-05-24T20:25:00.899Z,6.20
2023-05-24T20:27:28.577Z,6.50
2023-05-24T20:29:56.292Z,6.00
2023-05-24T20:32:24.032Z,6.70
2023-05-24T20:34:51.691Z,5.90
2023-05-24T20:37:19.474Z,5.70
2023-05-24T20:39:47.176Z,5.20
2023-05-24T20:42:15.619Z,5.30
2023-05-24T20:44:43.550Z,5.20
2023-05-24T20:47:11.123Z,5.90
2023-05-24T20:49:38.746Z,5.70
2023-05-24T20:52:07.088Z,5.70
2023-05-24T20:54:34.653Z,5.40
2023-05-24T20:57:02.923Z,4.80
2023-05-24T20:59:31.078Z,4.90
2023-05-24T21:01:58.867Z,5.10
2023-05-24T21:04:27.300Z,5.20
2023-05-24T21:06:55.985Z,6.20
2023-05-24T21:09:23.756Z,5.90
2023-05-24T21:11:51.334Z,6.90
2023-05-24T21:14:18.950Z,6.70
2023-05-24T21:16:46.685Z,6.40
2023-05-24T21:19:14.257Z,6.40
2023-05-24T21:21:41.840Z,6.60
2023-05-24T21:24:09.491Z,6.30
2023-05-24T21:26:37.058Z,7.20
2023-05-24T21:29:04.820Z,6.30
2023-05-24T21:31:35.902Z,7.40
2023-05-24T21:34:03.831Z,7.00
2023-05-24T21:36:31.905Z,5.70
2023-05-24T21:38:59.503Z,4.60
2023-05-24T21:41:27.645Z,5.50
2023-05-24T21:43:55.185Z,5.10
2023-05-24T21:46:22.937Z,5.10
2023-05-24T21:48:50.589Z,4.80
2023-05-24T21:51:18.233Z,5.70
2023-05-24T21:53:46.326Z,6.10
2023-05-24T21:56:14.137Z,6.60
2023-05-24T21:58:41.803Z,6.90
2023-05-24T22:01:09.699Z,6.10
2023-05-24T22:03:37.904Z,6.50
2023-05-24T22:06:05.669Z,5.90
2023-05-24T22:08:33.257Z,5.70
2023-05-24T22:11:00.816Z,6.40
2023-05-24T22:13:28.524Z,6.60
2023-05-24T22:15:56.078Z,6.40
2023-05-24T22:18:28.556Z,6.70
2023-05-24T22:20:58.443Z,7.00
2023-05-24T22:23:26.351Z,7.70
2023-05-24T22:25:53.992Z,7.10
2023-05-24T22:28:21.599Z,6.30
2023-05-24T22:30:49.275Z,6.30
2023-05-24T22:33:17.052Z,6.70
2023-05-24T22:35:44.882Z,7.90
2023-05-24T22:38:12.782Z,6.40
2023-05-24T22:40:42.390Z,5.50
2023-05-24T22:43:10.055Z,6.20
2023-05-24T22:45:37.729Z,6.70
2023-05-24T22:48:05.768Z,6.80
2023-05-24T22:50:33.771Z,6.20
2023-05-24T22:53:01.409Z,5.90
2023-05-24T22:55:29.050Z,6.40
2023-05-24T22:57:56.654Z,6.10
2023-05-24T23:00:24.392Z,6.20
2023-05-24T23:02:51.944Z,7.20
2023-05-24T23:05:21.788Z,5.80
2023-05-24T23:07:49.624Z,5.90
2023-05-24T23:10:17.257Z,5.90
2023-05-24T23:12:44.859Z,5.80
2023-05-24T23:15:16.932Z,6.00
2023-05-24T23:17:44.698Z,5.60
2023-05-24T23:20:14.603Z,4.80
2023-05-24T23:22:42.306Z,4.80
2023-05-24T23:25:10.485Z,4.50
2023-05-24T23:27:38.140Z,4.60
2023-05-24T23:30:06.977Z,4.80
2023-05-24T23:32:34.824Z,4.10
2023-05-24T23:35:02.378Z,4.90
2023-05-24T23:37:30.091Z,4.00
2023-05-24T23:40:02.421Z,4.80
2023-05-24T23:42:29.984Z,4.70
2023-05-24T23:44:57.622Z,4.80
2023-05-24T23:47:25.221Z,4.90
2023-05-24T23:49:53.379Z,5.50
2023-05-24T23:52:21.240Z,7.80
2023-05-24T23:54:48.809Z,10.10
2023-05-24T23:57:17.632Z,11.30
2023-05-24T23:59:45.158Z,12.00
